sensor_id;sensor_type;location;lat;lon;timestamp;pressure;altitude;pressure_sealevel;temperature;humidity
1726;BME280;41776;48.260;8.928;2023-03-31T00:02:11;52365.16;;;-145.69;100.00
1726;BME280;41776;48.260;8.928;2023-03-31T00:04:38;52355.28;;;-145.69;100.00
1726;BME280;41776;48.260;8.928;2023-03-31T00:07:10;52377.06;;;-145.69;100.00
1726;BME280;41776;48.260;8.928;2023-03-31T00:09:40;52331.50;;;-145.69;100.00
1726;BME280;41776;48.260;8.928;2023-03-31T00:12:10;52369.13;;;-145.69;100.00
1726;BME280;41776;48.260;8.928;2023-03-31T00:14:40;52357.25;;;-145.69;100.00
1726;BME280;41776;48.260;8.928;2023-03-31T00:17:07;52394.88;;;-145.69;100.00
1726;BME280;41776;48.260;8.928;2023-03-31T00:19:34;52381.00;;;-145.69;100.00
1726;BME280;41776;48.260;8.928;2023-03-31T00:22:01;52373.09;;;-145.69;100.00
1726;BME280;41776;48.260;8.928;2023-03-31T00:24:36;52361.22;;;-145.69;100.00
1726;BME280;41776;48.260;8.928;2023-03-31T00:27:04;52371.13;;;-145.69;100.00
1726;BME280;41776;48.260;8.928;2023-03-31T00:29:31;52365.16;;;-145.69;100.00
1726;BME280;41776;48.260;8.928;2023-03-31T00:32:00;52365.16;;;-145.69;100.00
1726;BME280;41776;48.260;8.928;2023-03-31T00:34:26;52353.28;;;-145.69;100.00
1726;BME280;41776;48.260;8.928;2023-03-31T00:36:54;52398.84;;;-145.69;100.00
1726;BME280;41776;48.260;8.928;2023-03-31T00:39:29;52355.28;;;-145.69;100.00
1726;BME280;41776;48.260;8.928;2023-03-31T00:42:00;52357.25;;;-145.69;100.00
1726;BME280;41776;48.260;8.928;2023-03-31T00:44:29;52345.38;;;-145.69;100.00
1726;BME280;41776;48.260;8.928;2023-03-31T00:47:00;52323.59;;;-145.69;100.00
1726;BME280;41776;48.260;8.928;2023-03-31T00:49:33;52351.31;;;-145.69;100.00
1726;BME280;41776;48.260;8.928;2023-03-31T00:52:03;52390.91;;;-145.69;100.00
1726;BME280;41776;48.260;8.928;2023-03-31T00:54:32;52353.28;;;-145.69;100.00
1726;BME280;41776;48.260;8.928;2023-03-31T00:57:00;52349.31;;;-145.69;100.00
1726;BME280;41776;48.260;8.928;2023-03-31T00:59:34;52402.78;;;-145.69;100.00
1726;BME280;41776;48.260;8.928;2023-03-31T01:02:02;52398.84;;;-145.69;100.00
1726;BME280;41776;48.260;8.928;2023-03-31T01:04:33;52383.00;;;-145.69;100.00
1726;BME280;41776;48.260;8.928;2023-03-31T01:07:04;52361.22;;;-145.69;100.00
1726;BME280;41776;48.260;8.928;2023-03-31T01:09:33;52357.25;;;-145.69;100.00
1726;BME280;41776;48.260;8.928;2023-03-31T01:12:05;52383.00;;;-145.69;100.00
1726;BME280;41776;48.260;8.928;2023-03-31T01:14:34;52377.06;;;-145.69;100.00
1726;BME280;41776;48.260;8.928;2023-03-31T01:17:01;52377.06;;;-145.69;97.74
1726;BME280;41776;48.260;8.928;2023-03-31T01:19:46;52369.13;;;-145.69;100.00
1726;BME280;41776;48.260;8.928;2023-03-31T01:22:49;52408.75;;;-145.69;100.00
1726;BME280;41776;48.260;8.928;2023-03-31T01:25:45;52361.22;;;-145.69;100.00
1726;BME280;41776;48.260;8.928;2023-03-31T01:28:31;52341.41;;;-145.69;100.00
1726;BME280;41776;48.260;8.928;2023-03-31T01:31:30;52351.31;;;-145.69;100.00
1726;BME280;41776;48.260;8.928;2023-03-31T01:40:41;52321.59;;;-145.69;100.00
1726;BME280;41776;48.260;8.928;2023-03-31T01:43:14;52353.28;;;-145.69;100.00
1726;BME280;41776;48.260;8.928;2023-03-31T01:45:53;52351.31;;;-145.69;100.00
1726;BME280;41776;48.260;8.928;2023-03-31T01:48:31;52367.16;;;-145.69;100.00
1726;BME280;41776;48.260;8.928;2023-03-31T01:51:02;52361.22;;;-145.69;100.00
1726;BME280;41776;48.260;8.928;2023-03-31T01:53:34;52357.25;;;-145.69;100.00
1726;BME280;41776;48.260;8.928;2023-03-31T01:56:06;52355.28;;;-145.69;100.00
1726;BME280;41776;48.260;8.928;2023-03-31T01:58:37;52349.31;;;-145.69;100.00
1726;BME280;41776;48.260;8.928;2023-03-31T02:01:13;52373.09;;;-145.69;100.00
1726;BME280;41776;48.260;8.928;2023-03-31T02:03:45;52361.22;;;-145.69;100.00
1726;BME280;41776;48.260;8.928;2023-03-31T02:06:18;52388.94;;;-145.69;100.00
1726;BME280;41776;48.260;8.928;2023-03-31T02:08:53;52400.81;;;-145.69;100.00
1726;BME280;41776;48.260;8.928;2023-03-31T02:11:25;52377.06;;;-145.69;100.00
1726;BME280;41776;48.260;8.928;2023-03-31T02:13:55;52386.97;;;-145.69;100.00
1726;BME280;41776;48.260;8.928;2023-03-31T02:16:26;52398.84;;;-145.69;100.00
1726;BME280;41776;48.260;8.928;2023-03-31T02:18:57;52381.00;;;-145.69;100.00
1726;BME280;41776;48.260;8.928;2023-03-31T02:21:27;52388.94;;;-145.69;100.00
1726;BME280;41776;48.260;8.928;2023-03-31T02:23:54;52373.09;;;-145.69;100.00
1726;BME280;41776;48.260;8.928;2023-03-31T02:26:24;52379.03;;;-145.69;100.00
1726;BME280;41776;48.260;8.928;2023-03-31T02:28:54;52369.13;;;-145.69;100.00
1726;BME280;41776;48.260;8.928;2023-03-31T02:31:26;52394.88;;;-145.69;100.00
1726;BME280;41776;48.260;8.928;2023-03-31T02:33:53;52394.88;;;-145.69;100.00
1726;BME280;41776;48.260;8.928;2023-03-31T02:36:20;52373.09;;;-145.69;100.00
1726;BME280;41776;48.260;8.928;2023-03-31T02:38:50;52418.63;;;-145.69;100.00
1726;BME280;41776;48.260;8.928;2023-03-31T02:41:19;52416.66;;;-145.69;100.00
1726;BME280;41776;48.260;8.928;2023-03-31T02:43:49;52434.47;;;-145.69;100.00
1726;BME280;41776;48.260;8.928;2023-03-31T02:46:15;52404.78;;;-145.69;100.00
1726;BME280;41776;48.260;8.928;2023-03-31T02:48:46;52408.75;;;-145.69;100.00
1726;BME280;41776;48.260;8.928;2023-03-31T02:51:27;52422.59;;;-145.69;100.00
1726;BME280;41776;48.260;8.928;2023-03-31T02:54:08;52452.31;;;-145.69;100.00
1726;BME280;41776;48.260;8.928;2023-03-31T02:56:58;52448.34;;;-145.69;100.00
1726;BME280;41776;48.260;8.928;2023-03-31T02:59:40;52424.59;;;-145.69;100.00
1726;BME280;41776;48.260;8.928;2023-03-31T03:02:17;52448.34;;;-145.69;100.00
1726;BME280;41776;48.260;8.928;2023-03-31T03:05:05;52436.47;;;-145.69;100.00
1726;BME280;41776;48.260;8.928;2023-03-31T03:07:38;52438.44;;;-145.69;100.00
1726;BME280;41776;48.260;8.928;2023-03-31T03:10:09;52432.50;;;-145.69;100.00
1726;BME280;41776;48.260;8.928;2023-03-31T03:12:43;52416.66;;;-145.69;100.00
1726;BME280;41776;48.260;8.928;2023-03-31T03:15:16;52424.59;;;-145.69;100.00
1726;BME280;41776;48.260;8.928;2023-03-31T03:17:47;52404.78;;;-145.69;100.00
1726;BME280;41776;48.260;8.928;2023-03-31T03:20:14;52408.75;;;-145.69;100.00
1726;BME280;41776;48.260;8.928;2023-03-31T03:22:41;52440.44;;;-145.69;100.00
1726;BME280;41776;48.260;8.928;2023-03-31T03:25:10;52420.63;;;-145.69;100.00
1726;BME280;41776;48.260;8.928;2023-03-31T03:27:38;52446.38;;;-145.69;100.00
1726;BME280;41776;48.260;8.928;2023-03-31T03:30:08;52402.78;;;-145.69;100.00
1726;BME280;41776;48.260;8.928;2023-03-31T03:32:36;52412.69;;;-145.69;100.00
1726;BME280;41776;48.260;8.928;2023-03-31T03:35:04;52416.66;;;-145.69;100.00
1726;BME280;41776;48.260;8.928;2023-03-31T03:37:31;52416.66;;;-145.69;100.00
1726;BME280;41776;48.260;8.928;2023-03-31T03:39:58;52456.28;;;-145.69;100.00
1726;BME280;41776;48.260;8.928;2023-03-31T03:42:24;52424.59;;;-145.69;100.00
1726;BME280;41776;48.260;8.928;2023-03-31T03:44:51;52450.31;;;-145.69;100.00
1726;BME280;41776;48.260;8.928;2023-03-31T03:47:17;52442.41;;;-145.69;100.00
1726;BME280;41776;48.260;8.928;2023-03-31T03:49:47;52398.84;;;-145.69;100.00
1726;BME280;41776;48.260;8.928;2023-03-31T03:52:14;52410.72;;;-145.69;100.00
1726;BME280;41776;48.260;8.928;2023-03-31T03:54:40;52460.22;;;-145.69;100.00
1726;BME280;41776;48.260;8.928;2023-03-31T03:57:07;52444.38;;;-145.69;100.00
1726;BME280;41776;48.260;8.928;2023-03-31T03:59:33;52440.44;;;-145.69;100.00
1726;BME280;41776;48.260;8.928;2023-03-31T04:02:00;52424.59;;;-145.69;100.00
1726;BME280;41776;48.260;8.928;2023-03-31T04:04:26;52458.25;;;-145.69;100.00
1726;BME280;41776;48.260;8.928;2023-03-31T04:06:54;52388.94;;;-145.69;100.00
1726;BME280;41776;48.260;8.928;2023-03-31T04:09:21;52402.78;;;-145.69;100.00
1726;BME280;41776;48.260;8.928;2023-03-31T04:11:50;52456.28;;;-145.69;100.00
1726;BME280;41776;48.260;8.928;2023-03-31T04:14:17;52460.22;;;-145.69;100.00
1726;BME280;41776;48.260;8.928;2023-03-31T04:16:43;52398.84;;;-145.69;100.00
1726;BME280;41776;48.260;8.928;2023-03-31T04:19:11;52438.44;;;-145.69;100.00
1726;BME280;41776;48.260;8.928;2023-03-31T04:21:38;52456.28;;;-145.69;100.00
1726;BME280;41776;48.260;8.928;2023-03-31T04:24:11;52462.22;;;-145.69;100.00
1726;BME280;41776;48.260;8.928;2023-03-31T04:26:45;52420.63;;;-145.69;100.00
1726;BME280;41776;48.260;8.928;2023-03-31T04:29:15;52456.28;;;-145.69;100.00
1726;BME280;41776;48.260;8.928;2023-03-31T04:31:45;52404.78;;;-145.69;100.00
1726;BME280;41776;48.260;8.928;2023-03-31T04:34:13;52420.63;;;-145.69;100.00
1726;BME280;41776;48.260;8.928;2023-03-31T04:36:41;52404.78;;;-145.69;100.00
1726;BME280;41776;48.260;8.928;2023-03-31T04:39:12;52456.28;;;-145.69;100.00
1726;BME280;41776;48.260;8.928;2023-03-31T04:41:39;52408.75;;;-145.69;100.00
1726;BME280;41776;48.260;8.928;2023-03-31T04:44:05;52418.63;;;-145.69;100.00
1726;BME280;41776;48.260;8.928;2023-03-31T04:46:32;52416.66;;;-145.69;100.00
1726;BME280;41776;48.260;8.928;2023-03-31T04:49:02;52424.59;;;-145.69;100.00
1726;BME280;41776;48.260;8.928;2023-03-31T04:51:29;52418.63;;;-145.69;100.00
1726;BME280;41776;48.260;8.928;2023-03-31T04:53:56;52438.44;;;-145.69;100.00
1726;BME280;41776;48.260;8.928;2023-03-31T04:56:24;52420.63;;;-145.69;100.00
1726;BME280;41776;48.260;8.928;2023-03-31T04:58:51;52406.75;;;-145.69;100.00
1726;BME280;41776;48.260;8.928;2023-03-31T05:01:18;52420.63;;;-145.69;100.00
1726;BME280;41776;48.260;8.928;2023-03-31T05:03:45;52388.94;;;-145.69;100.00
1726;BME280;41776;48.260;8.928;2023-03-31T05:06:12;52381.00;;;-145.69;100.00
1726;BME280;41776;48.260;8.928;2023-03-31T05:08:39;52400.81;;;-145.69;100.00
1726;BME280;41776;48.260;8.928;2023-03-31T05:11:06;52428.53;;;-145.69;100.00
1726;BME280;41776;48.260;8.928;2023-03-31T05:13:37;52420.63;;;-145.69;100.00
1726;BME280;41776;48.260;8.928;2023-03-31T05:16:07;52394.88;;;-145.69;100.00
1726;BME280;41776;48.260;8.928;2023-03-31T05:18:34;52436.47;;;-145.69;100.00
1726;BME280;41776;48.260;8.928;2023-03-31T05:21:11;52400.81;;;-145.69;100.00
1726;BME280;41776;48.260;8.928;2023-03-31T05:23:38;52420.63;;;-145.69;100.00
1726;BME280;41776;48.260;8.928;2023-03-31T05:26:05;52394.88;;;-145.69;100.00
1726;BME280;41776;48.260;8.928;2023-03-31T05:28:32;52428.53;;;-145.69;100.00
1726;BME280;41776;48.260;8.928;2023-03-31T05:31:01;52406.75;;;-145.69;100.00
1726;BME280;41776;48.260;8.928;2023-03-31T05:33:27;52420.63;;;-145.69;100.00
1726;BME280;41776;48.260;8.928;2023-03-31T05:35:54;52363.19;;;-145.69;100.00
1726;BME280;41776;48.260;8.928;2023-03-31T05:38:21;52400.81;;;-145.69;100.00
1726;BME280;41776;48.260;8.928;2023-03-31T05:40:48;52416.66;;;-145.69;100.00
1726;BME280;41776;48.260;8.928;2023-03-31T05:43:15;52418.63;;;-145.69;100.00
1726;BME280;41776;48.260;8.928;2023-03-31T05:45:41;52408.75;;;-145.69;100.00
1726;BME280;41776;48.260;8.928;2023-03-31T05:48:09;52424.59;;;-145.69;100.00
1726;BME280;41776;48.260;8.928;2023-03-31T05:50:35;52422.59;;;-145.69;100.00
1726;BME280;41776;48.260;8.928;2023-03-31T05:53:02;52462.22;;;-145.69;100.00
1726;BME280;41776;48.260;8.928;2023-03-31T05:55:31;52390.91;;;-145.69;100.00
1726;BME280;41776;48.260;8.928;2023-03-31T05:58:00;52418.63;;;-145.69;100.00
1726;BME280;41776;48.260;8.928;2023-03-31T06:00:27;52452.31;;;-145.69;100.00
1726;BME280;41776;48.260;8.928;2023-03-31T06:02:56;52428.53;;;-145.69;100.00
1726;BME280;41776;48.260;8.928;2023-03-31T06:05:24;52424.59;;;-145.69;100.00
1726;BME280;41776;48.260;8.928;2023-03-31T06:07:51;52440.44;;;-145.69;100.00
1726;BME280;41776;48.260;8.928;2023-03-31T06:10:19;52412.69;;;-145.69;100.00
1726;BME280;41776;48.260;8.928;2023-03-31T06:12:45;52404.78;;;-145.69;100.00
1726;BME280;41776;48.260;8.928;2023-03-31T06:15:13;52410.72;;;-145.69;100.00
1726;BME280;41776;48.260;8.928;2023-03-31T06:17:40;52416.66;;;-145.69;100.00
1726;BME280;41776;48.260;8.928;2023-03-31T06:20:07;52424.59;;;-145.69;100.00
1726;BME280;41776;48.260;8.928;2023-03-31T06:22:35;52424.59;;;-145.69;100.00
1726;BME280;41776;48.260;8.928;2023-03-31T06:25:02;52412.69;;;-145.69;100.00
1726;BME280;41776;48.260;8.928;2023-03-31T06:27:28;52432.50;;;-145.69;100.00
1726;BME280;41776;48.260;8.928;2023-03-31T06:29:55;52420.63;;;-145.69;100.00
1726;BME280;41776;48.260;8.928;2023-03-31T06:32:21;52434.47;;;-145.69;100.00
1726;BME280;41776;48.260;8.928;2023-03-31T06:34:50;52430.53;;;-145.69;100.00
1726;BME280;41776;48.260;8.928;2023-03-31T06:37:17;52416.66;;;-145.69;100.00
1726;BME280;41776;48.260;8.928;2023-03-31T06:39:44;52418.63;;;-145.69;100.00
1726;BME280;41776;48.260;8.928;2023-03-31T06:42:11;52412.69;;;-145.69;100.00
1726;BME280;41776;48.260;8.928;2023-03-31T06:44:37;52392.91;;;-145.69;100.00
1726;BME280;41776;48.260;8.928;2023-03-31T06:47:04;52392.91;;;-145.69;100.00
1726;BME280;41776;48.260;8.928;2023-03-31T06:49:31;52406.75;;;-145.69;100.00
1726;BME280;41776;48.260;8.928;2023-03-31T06:51:59;52446.38;;;-145.69;100.00
1726;BME280;41776;48.260;8.928;2023-03-31T06:54:26;52430.53;;;-145.69;100.00
1726;BME280;41776;48.260;8.928;2023-03-31T06:56:55;52468.16;;;-145.69;100.00
1726;BME280;41776;48.260;8.928;2023-03-31T06:59:21;52448.34;;;-145.69;100.00
1726;BME280;41776;48.260;8.928;2023-03-31T07:01:47;52434.47;;;-145.69;100.00
1726;BME280;41776;48.260;8.928;2023-03-31T07:04:14;52424.59;;;-145.69;100.00
1726;BME280;41776;48.260;8.928;2023-03-31T07:06:41;52452.31;;;-145.69;100.00
1726;BME280;41776;48.260;8.928;2023-03-31T07:09:09;52396.84;;;-145.69;100.00
1726;BME280;41776;48.260;8.928;2023-03-31T07:11:36;52420.63;;;-145.69;100.00
1726;BME280;41776;48.260;8.928;2023-03-31T07:14:04;52444.38;;;-145.69;100.00
1726;BME280;41776;48.260;8.928;2023-03-31T07:16:30;52454.28;;;-145.69;100.00
1726;BME280;41776;48.260;8.928;2023-03-31T07:18:57;52422.59;;;-145.69;100.00
1726;BME280;41776;48.260;8.928;2023-03-31T07:21:27;52432.50;;;-145.69;100.00
1726;BME280;41776;48.260;8.928;2023-03-31T07:23:54;52426.56;;;-145.69;100.00
1726;BME280;41776;48.260;8.928;2023-03-31T07:26:21;52444.38;;;-145.69;100.00
1726;BME280;41776;48.260;8.928;2023-03-31T07:28:47;52460.22;;;-145.69;100.00
1726;BME280;41776;48.260;8.928;2023-03-31T07:31:16;52456.28;;;-145.69;100.00
1726;BME280;41776;48.260;8.928;2023-03-31T07:33:42;52432.50;;;-145.69;100.00
1726;BME280;41776;48.260;8.928;2023-03-31T07:36:09;52412.69;;;-145.69;100.00
1726;BME280;41776;48.260;8.928;2023-03-31T07:38:36;52434.47;;;-145.69;100.00
1726;BME280;41776;48.260;8.928;2023-03-31T07:41:08;52448.34;;;-145.69;100.00
1726;BME280;41776;48.260;8.928;2023-03-31T07:43:40;52442.41;;;-145.69;100.00
1726;BME280;41776;48.260;8.928;2023-03-31T07:46:17;52432.50;;;-145.69;100.00
1726;BME280;41776;48.260;8.928;2023-03-31T07:48:45;52438.44;;;-145.69;100.00
1726;BME280;41776;48.260;8.928;2023-03-31T07:51:12;52408.75;;;-145.69;100.00
1726;BME280;41776;48.260;8.928;2023-03-31T07:53:39;52398.84;;;-145.69;100.00
1726;BME280;41776;48.260;8.928;2023-03-31T07:56:06;52412.69;;;-145.69;100.00
1726;BME280;41776;48.260;8.928;2023-03-31T07:58:32;52406.75;;;-145.69;100.00
1726;BME280;41776;48.260;8.928;2023-03-31T08:01:02;52420.63;;;-145.69;100.00
1726;BME280;41776;48.260;8.928;2023-03-31T08:03:30;52418.63;;;-145.69;100.00
1726;BME280;41776;48.260;8.928;2023-03-31T08:05:56;52420.63;;;-145.69;100.00
1726;BME280;41776;48.260;8.928;2023-03-31T08:08:23;52406.75;;;-145.69;100.00
1726;BME280;41776;48.260;8.928;2023-03-31T08:10:49;52416.66;;;-145.69;100.00
1726;BME280;41776;48.260;8.928;2023-03-31T08:13:16;52404.78;;;-145.69;100.00
1726;BME280;41776;48.260;8.928;2023-03-31T08:15:42;52420.63;;;-145.69;100.00
1726;BME280;41776;48.260;8.928;2023-03-31T08:18:09;52392.91;;;-145.69;100.00
1726;BME280;41776;48.260;8.928;2023-03-31T08:20:37;52392.91;;;-145.69;100.00
1726;BME280;41776;48.260;8.928;2023-03-31T08:23:04;52394.88;;;-145.69;100.00
1726;BME280;41776;48.260;8.928;2023-03-31T08:25:33;52428.53;;;-145.69;100.00
1726;BME280;41776;48.260;8.928;2023-03-31T08:27:59;52408.75;;;-145.69;100.00
1726;BME280;41776;48.260;8.928;2023-03-31T08:30:26;52402.78;;;-145.69;100.00
1726;BME280;41776;48.260;8.928;2023-03-31T08:32:52;52392.91;;;-145.69;100.00
1726;BME280;41776;48.260;8.928;2023-03-31T08:35:19;52379.03;;;-145.69;100.00
1726;BME280;41776;48.260;8.928;2023-03-31T08:37:46;52404.78;;;-145.69;100.00
1726;BME280;41776;48.260;8.928;2023-03-31T08:40:15;52416.66;;;-145.69;100.00
1726;BME280;41776;48.260;8.928;2023-03-31T08:42:45;52386.97;;;-145.69;100.00
1726;BME280;41776;48.260;8.928;2023-03-31T08:45:19;52377.06;;;-145.69;100.00
1726;BME280;41776;48.260;8.928;2023-03-31T08:47:49;52375.06;;;-145.69;100.00
1726;BME280;41776;48.260;8.928;2023-03-31T08:50:20;52396.84;;;-145.69;100.00
1726;BME280;41776;48.260;8.928;2023-03-31T08:52:55;52388.94;;;-145.69;100.00
1726;BME280;41776;48.260;8.928;2023-03-31T08:55:26;52365.16;;;-145.69;100.00
1726;BME280;41776;48.260;8.928;2023-03-31T08:57:59;52367.16;;;-145.69;100.00
1726;BME280;41776;48.260;8.928;2023-03-31T09:00:29;52384.97;;;-145.69;100.00
1726;BME280;41776;48.260;8.928;2023-03-31T09:03:04;52390.91;;;-145.69;100.00
1726;BME280;41776;48.260;8.928;2023-03-31T09:05:52;52381.00;;;-145.69;100.00
1726;BME280;41776;48.260;8.928;2023-03-31T09:08:31;52369.13;;;-145.69;100.00
1726;BME280;41776;48.260;8.928;2023-03-31T09:11:05;52386.97;;;-145.69;100.00
1726;BME280;41776;48.260;8.928;2023-03-31T09:13:50;52375.06;;;-145.69;100.00
1726;BME280;41776;48.260;8.928;2023-03-31T09:16:23;52373.09;;;-145.69;100.00
1726;BME280;41776;48.260;8.928;2023-03-31T09:18:51;52377.06;;;-145.69;100.00
1726;BME280;41776;48.260;8.928;2023-03-31T09:21:25;52345.38;;;-145.69;100.00
1726;BME280;41776;48.260;8.928;2023-03-31T09:23:59;52367.16;;;-145.69;100.00
1726;BME280;41776;48.260;8.928;2023-03-31T09:26:35;52381.00;;;-145.69;100.00
1726;BME280;41776;48.260;8.928;2023-03-31T09:29:04;52396.84;;;-145.69;100.00
1726;BME280;41776;48.260;8.928;2023-03-31T09:31:33;52386.97;;;-145.69;100.00
1726;BME280;41776;48.260;8.928;2023-03-31T09:34:00;52351.31;;;-145.69;98.31
1726;BME280;41776;48.260;8.928;2023-03-31T09:36:34;52357.25;;;-145.69;100.00
1726;BME280;41776;48.260;8.928;2023-03-31T09:39:02;52365.16;;;-145.69;98.22
1726;BME280;41776;48.260;8.928;2023-03-31T09:41:29;52343.38;;;-145.69;99.78
1726;BME280;41776;48.260;8.928;2023-03-31T09:43:56;52396.84;;;-145.69;100.00
1726;BME280;41776;48.260;8.928;2023-03-31T09:46:27;52388.94;;;-145.69;100.00
1726;BME280;41776;48.260;8.928;2023-03-31T09:49:00;52369.13;;;-145.69;100.00
1726;BME280;41776;48.260;8.928;2023-03-31T09:51:31;52371.13;;;-145.69;100.00
1726;BME280;41776;48.260;8.928;2023-03-31T09:54:08;52369.13;;;-145.69;95.00
1726;BME280;41776;48.260;8.928;2023-03-31T09:56:47;52383.00;;;-145.69;92.55
1726;BME280;41776;48.260;8.928;2023-03-31T09:59:16;52359.22;;;-145.69;92.44
1726;BME280;41776;48.260;8.928;2023-03-31T10:01:44;52353.28;;;-145.69;89.76
1726;BME280;41776;48.260;8.928;2023-03-31T10:04:18;52365.16;;;-145.69;82.05
1726;BME280;41776;48.260;8.928;2023-03-31T10:06:49;52355.28;;;-145.69;75.41
1726;BME280;41776;48.260;8.928;2023-03-31T10:09:29;52373.09;;;-145.69;79.54
1726;BME280;41776;48.260;8.928;2023-03-31T10:12:01;52363.19;;;-145.69;78.28
1726;BME280;41776;48.260;8.928;2023-03-31T10:14:37;52345.38;;;-145.69;73.35
1726;BME280;41776;48.260;8.928;2023-03-31T10:17:04;52325.56;;;-145.69;70.26
1726;BME280;41776;48.260;8.928;2023-03-31T10:19:33;52333.47;;;-145.69;67.97
1726;BME280;41776;48.260;8.928;2023-03-31T10:22:02;52341.41;;;-145.69;71.92
1726;BME280;41776;48.260;8.928;2023-03-31T10:24:37;52373.09;;;-145.69;71.30
1726;BME280;41776;48.260;8.928;2023-03-31T10:27:06;52335.47;;;-145.69;71.14
1726;BME280;41776;48.260;8.928;2023-03-31T10:29:39;52341.41;;;-145.69;74.19
1726;BME280;41776;48.260;8.928;2023-03-31T10:32:09;52349.31;;;-145.69;70.62
1726;BME280;41776;48.260;8.928;2023-03-31T10:34:41;52321.59;;;-145.69;62.89
1726;BME280;41776;48.260;8.928;2023-03-31T10:37:10;52345.38;;;-145.69;66.92
1726;BME280;41776;48.260;8.928;2023-03-31T10:39:42;52337.44;;;-145.69;59.01
1726;BME280;41776;48.260;8.928;2023-03-31T10:42:10;52361.22;;;-145.69;57.60
1726;BME280;41776;48.260;8.928;2023-03-31T10:44:37;52297.84;;;-145.69;63.64
1726;BME280;41776;48.260;8.928;2023-03-31T10:47:16;52321.59;;;-145.69;57.37
1726;BME280;41776;48.260;8.928;2023-03-31T10:49:47;52315.66;;;-145.69;55.59
1726;BME280;41776;48.260;8.928;2023-03-31T10:52:18;52327.53;;;-145.69;53.61
1726;BME280;41776;48.260;8.928;2023-03-31T10:54:48;52345.38;;;-145.69;54.87
1726;BME280;41776;48.260;8.928;2023-03-31T10:57:16;52301.81;;;-145.69;56.87
1726;BME280;41776;48.260;8.928;2023-03-31T10:59:55;52293.88;;;-145.69;50.91
1726;BME280;41776;48.260;8.928;2023-03-31T11:03:08;52293.88;;;-145.69;50.09
1726;BME280;41776;48.260;8.928;2023-03-31T11:05:43;52307.75;;;-145.69;48.22
1726;BME280;41776;48.260;8.928;2023-03-31T11:08:24;52305.75;;;-145.69;47.17
1726;BME280;41776;48.260;8.928;2023-03-31T11:11:03;52301.81;;;-145.69;45.85
1726;BME280;41776;48.260;8.928;2023-03-31T11:13:38;52315.66;;;-145.69;45.59
1726;BME280;41776;48.260;8.928;2023-03-31T11:16:17;52311.69;;;-145.69;47.07
1726;BME280;41776;48.260;8.928;2023-03-31T11:19:00;52345.38;;;-145.69;46.68
1726;BME280;41776;48.260;8.928;2023-03-31T11:21:37;52299.81;;;-145.69;48.02
1726;BME280;41776;48.260;8.928;2023-03-31T11:24:14;52349.31;;;-145.69;71.62
1726;BME280;41776;48.260;8.928;2023-03-31T11:26:50;52373.09;;;-145.69;91.41
1726;BME280;41776;48.260;8.928;2023-03-31T11:29:32;52367.16;;;-145.69;100.00
1726;BME280;41776;48.260;8.928;2023-03-31T11:32:15;52388.94;;;-145.69;100.00
1726;BME280;41776;48.260;8.928;2023-03-31T11:34:59;52392.91;;;-145.69;100.00
1726;BME280;41776;48.260;8.928;2023-03-31T11:37:55;52381.00;;;-145.69;100.00
1726;BME280;41776;48.260;8.928;2023-03-31T11:40:49;52392.91;;;-145.69;100.00
1726;BME280;41776;48.260;8.928;2023-03-31T11:43:26;52388.94;;;-145.69;100.00
1726;BME280;41776;48.260;8.928;2023-03-31T11:45:58;52394.88;;;-145.69;100.00
1726;BME280;41776;48.260;8.928;2023-03-31T11:48:32;52400.81;;;-145.69;100.00
1726;BME280;41776;48.260;8.928;2023-03-31T11:51:02;52400.81;;;-145.69;100.00
1726;BME280;41776;48.260;8.928;2023-03-31T11:53:31;52377.06;;;-145.69;100.00
1726;BME280;41776;48.260;8.928;2023-03-31T11:55:59;52392.91;;;-145.69;100.00
1726;BME280;41776;48.260;8.928;2023-03-31T11:58:34;52392.91;;;-145.69;100.00
1726;BME280;41776;48.260;8.928;2023-03-31T12:01:06;52412.69;;;-145.69;100.00
1726;BME280;41776;48.260;8.928;2023-03-31T12:03:38;52404.78;;;-145.69;100.00
1726;BME280;41776;48.260;8.928;2023-03-31T12:06:11;52404.78;;;-145.69;100.00
1726;BME280;41776;48.260;8.928;2023-03-31T12:08:46;52390.91;;;-145.69;100.00
1726;BME280;41776;48.260;8.928;2023-03-31T12:11:19;52384.97;;;-145.69;100.00
1726;BME280;41776;48.260;8.928;2023-03-31T12:13:51;52408.75;;;-145.69;100.00
1726;BME280;41776;48.260;8.928;2023-03-31T12:16:21;52373.09;;;-145.69;100.00
1726;BME280;41776;48.260;8.928;2023-03-31T12:18:56;52392.91;;;-145.69;100.00
1726;BME280;41776;48.260;8.928;2023-03-31T12:21:25;52333.47;;;-145.69;100.00
1726;BME280;41776;48.260;8.928;2023-03-31T12:23:54;52404.78;;;-145.69;100.00
1726;BME280;41776;48.260;8.928;2023-03-31T12:26:34;52424.59;;;-145.69;100.00
1726;BME280;41776;48.260;8.928;2023-03-31T12:29:13;52353.28;;;-145.69;100.00
1726;BME280;41776;48.260;8.928;2023-03-31T12:31:43;52369.13;;;-145.69;100.00
1726;BME280;41776;48.260;8.928;2023-03-31T12:34:12;52369.13;;;-145.69;100.00
1726;BME280;41776;48.260;8.928;2023-03-31T12:36:48;52357.25;;;-145.69;100.00
1726;BME280;41776;48.260;8.928;2023-03-31T12:39:30;52355.28;;;-145.69;100.00
1726;BME280;41776;48.260;8.928;2023-03-31T12:42:27;52394.88;;;-145.69;100.00
1726;BME280;41776;48.260;8.928;2023-03-31T12:45:04;52384.97;;;-145.69;100.00
1726;BME280;41776;48.260;8.928;2023-03-31T12:47:52;52371.13;;;-145.69;100.00
1726;BME280;41776;48.260;8.928;2023-03-31T12:50:32;52361.22;;;-145.69;100.00
1726;BME280;41776;48.260;8.928;2023-03-31T12:53:09;52371.13;;;-145.69;100.00
1726;BME280;41776;48.260;8.928;2023-03-31T12:55:41;52381.00;;;-145.69;96.45
1726;BME280;41776;48.260;8.928;2023-03-31T12:58:41;52353.28;;;-145.69;81.59
1726;BME280;41776;48.260;8.928;2023-03-31T13:01:12;52388.94;;;-145.69;77.85
1726;BME280;41776;48.260;8.928;2023-03-31T13:03:46;52349.31;;;-145.69;76.90
1726;BME280;41776;48.260;8.928;2023-03-31T13:09:45;52377.06;;;-145.69;67.51
1726;BME280;41776;48.260;8.928;2023-03-31T13:12:14;52359.22;;;-145.69;64.56